Terminal Aerodrome Forecast
Issued by NWS

Home | Current Version | Previous Version | Text Only | Print | Product List | Glossary On
Versions: 1 2 3 4 5 6 7 8 9 10 11 12 13 14 15 16 17 18
000
FTUS46 KSGX 271517 AAB
TAFSNA
TAF AMD
KSNA 271517Z 2715/2812 15006KT P6SM SCT030
      TEMPO 2716/2718 BKN030
     FM271800 19009KT P6SM SCT030
     FM272000 22010KT P6SM SCT030
     FM280100 22010G18KT P6SM BKN025
     FM280500 20011G18KT P6SM VCSH BKN025=

USA.gov is the U.S. government's official web portal to all federal, state and local government web resources and services.